createdAt,value
2023-05-20T07:09:35.730Z,20.42
2023-05-20T07:12:06.444Z,20.00
2023-05-20T07:14:34.365Z,17.38
2023-05-20T07:17:03.069Z,17.05
2023-05-20T07:19:31.664Z,23.65
2023-05-20T07:21:59.590Z,18.83
2023-05-20T07:24:48.418Z,18.00
2023-05-20T07:27:16.440Z,16.55
2023-05-20T07:29:44.492Z,16.38
2023-05-20T07:32:13.082Z,14.63
2023-05-20T07:34:40.972Z,13.73
2023-05-20T07:37:10.038Z,16.45
2023-05-20T07:39:38.602Z,14.15
2023-05-20T07:42:09.327Z,12.55
2023-05-20T07:44:40.336Z,12.43
2023-05-20T07:47:08.381Z,13.10
2023-05-20T07:49:36.409Z,12.80
2023-05-20T07:52:05.951Z,11.65
2023-05-20T07:54:35.718Z,12.60
2023-05-20T07:57:04.415Z,12.50
2023-05-20T07:59:34.481Z,11.98
2023-05-20T08:02:02.622Z,13.82
2023-05-20T08:04:30.925Z,10.57
2023-05-20T08:06:59.098Z,11.35
2023-05-20T08:09:42.470Z,11.20
2023-05-20T08:12:10.499Z,11.70
2023-05-20T08:14:39.727Z,11.57
2023-05-20T08:17:07.746Z,11.63
2023-05-20T08:19:35.858Z,9.73
2023-05-20T08:22:03.915Z,9.50
2023-05-20T08:24:31.976Z,9.25
2023-05-20T08:27:00.144Z,10.15
2023-05-20T08:29:28.898Z,10.52
2023-05-20T08:31:58.268Z,9.75
2023-05-20T08:34:27.839Z,9.50
2023-05-20T08:36:57.688Z,9.88
2023-05-20T08:39:27.084Z,10.23
2023-05-20T08:41:55.780Z,10.60
2023-05-20T08:44:25.401Z,7.53
2023-05-20T08:46:54.089Z,9.10
2023-05-20T08:49:23.618Z,10.50
2023-05-20T08:51:51.735Z,7.78
2023-05-20T08:54:23.911Z,9.50
2023-05-20T08:56:54.042Z,8.40
2023-05-20T08:59:22.554Z,7.78
2023-05-20T09:01:50.741Z,6.65
2023-05-20T09:04:18.673Z,9.45
2023-05-20T09:06:48.473Z,6.82
2023-05-20T09:09:17.001Z,7.75
2023-05-20T09:11:44.956Z,7.07
2023-05-20T09:14:12.848Z,5.97
2023-05-20T09:16:41.524Z,6.45
2023-05-20T09:19:09.902Z,5.55
2023-05-20T09:21:38.913Z,6.57
2023-05-20T09:24:08.531Z,4.38
2023-05-20T09:26:37.003Z,3.78
2023-05-20T09:29:05.053Z,4.25
2023-05-20T09:31:33.991Z,5.85
2023-05-20T09:34:02.809Z,4.35
2023-05-20T09:36:31.821Z,6.65
2023-05-20T09:39:05.143Z,4.80
2023-05-20T09:41:35.592Z,5.07
2023-05-20T09:44:04.301Z,3.75
2023-05-20T09:46:32.788Z,4.68
2023-05-20T09:49:01.131Z,4.53
2023-05-20T09:51:30.295Z,4.30
2023-05-20T09:54:00.638Z,3.50
2023-05-20T09:56:33.027Z,4.47
2023-05-20T09:59:03.599Z,5.45
2023-05-20T10:01:31.939Z,3.55
2023-05-20T10:04:01.571Z,5.35
2023-05-20T10:07:02.093Z,3.60
2023-05-20T10:09:44.885Z,3.75
2023-05-20T10:12:22.158Z,4.43
2023-05-20T10:15:04.287Z,4.38
2023-05-20T10:17:41.024Z,3.83
2023-05-20T10:20:11.815Z,3.35
2023-05-20T10:22:41.015Z,3.47
2023-05-20T10:25:13.904Z,4.78
2023-05-20T10:30:21.807Z,3.30
2023-05-20T10:32:56.693Z,4.13
2023-05-20T10:35:27.282Z,4.10
2023-05-20T10:37:56.117Z,3.33
2023-05-20T10:40:24.320Z,3.22
2023-05-20T10:42:52.297Z,3.58
2023-05-20T10:45:28.497Z,5.18
2023-05-20T10:47:57.850Z,4.05
2023-05-20T10:50:29.929Z,3.25
2023-05-20T10:53:05.185Z,4.20
2023-05-20T10:55:38.611Z,3.38
2023-05-20T10:58:07.452Z,3.45
2023-05-20T11:00:38.272Z,4.53
2023-05-20T11:03:07.865Z,3.60
2023-05-20T11:05:36.350Z,5.93
2023-05-20T11:08:10.999Z,3.17
2023-05-20T11:10:48.427Z,3.60
2023-05-20T11:13:16.435Z,4.13
2023-05-20T11:15:45.762Z,4.30
2023-05-20T11:18:16.972Z,4.20
2023-05-20T11:20:47.874Z,3.58
2023-05-20T11:23:16.457Z,4.78
2023-05-20T11:25:44.431Z,3.70
2023-05-20T11:28:14.762Z,3.58
2023-05-20T11:30:45.146Z,3.35
2023-05-20T11:33:14.478Z,3.53
2023-05-20T11:35:46.890Z,7.80
2023-05-20T11:38:15.557Z,3.53
2023-05-20T11:40:51.074Z,2.85
2023-05-20T11:43:20.819Z,2.97
2023-05-20T11:45:55.439Z,3.13
2023-05-20T11:48:24.764Z,3.00
2023-05-20T11:50:55.740Z,3.25
2023-05-20T11:53:25.286Z,4.75
2023-05-20T11:55:55.293Z,3.25
2023-05-20T11:58:24.352Z,4.63
2023-05-20T12:01:01.904Z,3.22
2023-05-20T12:03:37.883Z,3.75
2023-05-20T12:06:06.118Z,5.63
2023-05-20T12:08:34.068Z,3.83
2023-05-20T12:11:02.281Z,4.55
2023-05-20T12:13:30.294Z,3.17
2023-05-20T12:15:59.747Z,4.50
2023-05-20T12:18:27.753Z,5.60
2023-05-20T12:20:55.776Z,4.10
2023-05-20T12:23:23.724Z,4.63
2023-05-20T12:25:51.797Z,4.25
2023-05-20T12:28:19.760Z,3.78
2023-05-20T12:30:48.010Z,5.07
2023-05-20T12:33:17.308Z,4.57
2023-05-20T12:35:46.746Z,5.07
2023-05-20T12:38:14.665Z,4.28
2023-05-20T12:40:42.608Z,4.18
2023-05-20T12:43:10.659Z,5.78
2023-05-20T12:45:38.591Z,4.20
2023-05-20T12:48:07.844Z,4.78
2023-05-20T12:50:37.463Z,5.30
2023-05-20T12:53:05.625Z,5.43
2023-05-20T12:55:33.549Z,5.53
2023-05-20T12:58:01.462Z,5.75
2023-05-20T13:00:29.399Z,6.28
2023-05-20T13:02:57.415Z,6.28
2023-05-20T13:05:25.397Z,6.75
2023-05-20T13:07:54.666Z,5.90
2023-05-20T13:10:23.411Z,6.70
2023-05-20T13:12:51.315Z,7.28
2023-05-20T13:15:19.357Z,8.75
2023-05-20T13:17:47.307Z,7.10
2023-05-20T13:20:15.979Z,6.93
2023-05-20T13:22:45.035Z,7.07
2023-05-20T13:25:14.288Z,8.07
2023-05-20T13:27:42.671Z,6.75
2023-05-20T13:30:11.293Z,8.05
2023-05-20T13:32:39.499Z,7.97
2023-05-20T13:35:08.743Z,8.50
2023-05-20T13:37:36.648Z,7.22
2023-05-20T13:40:04.994Z,7.75
2023-05-20T13:42:34.291Z,9.00
2023-05-20T13:45:02.184Z,8.48
2023-05-20T13:47:30.216Z,7.68
2023-05-20T13:49:59.108Z,6.60
2023-05-20T13:52:27.998Z,8.52
2023-05-20T13:54:56.101Z,8.70
2023-05-20T13:57:24.074Z,9.95
2023-05-20T13:59:53.333Z,8.10
2023-05-20T14:02:21.258Z,10.13
2023-05-20T14:04:49.176Z,7.55
2023-05-20T14:07:17.230Z,7.35
2023-05-20T14:09:45.199Z,10.05
2023-05-20T14:12:13.123Z,7.53
2023-05-20T14:14:41.015Z,8.93
2023-05-20T14:17:10.314Z,9.38
2023-05-20T14:19:38.698Z,8.13
2023-05-20T14:22:06.667Z,7.75
2023-05-20T14:24:34.596Z,9.98
2023-05-20T14:27:02.502Z,9.15
2023-05-20T14:29:30.403Z,9.50
2023-05-20T14:31:58.432Z,7.85
2023-05-20T14:34:27.751Z,8.45
2023-05-20T14:36:57.062Z,8.10
2023-05-20T14:39:24.979Z,10.13
2023-05-20T14:41:52.899Z,7.72
2023-05-20T14:44:20.817Z,14.02
2023-05-20T14:46:48.929Z,8.25
2023-05-20T14:49:16.888Z,8.65
2023-05-20T14:51:46.268Z,8.30
2023-05-20T14:54:15.082Z,9.35
2023-05-20T14:56:43.885Z,7.78
2023-05-20T14:59:11.858Z,8.60
2023-05-20T15:01:39.770Z,9.63
2023-05-20T15:04:07.785Z,8.93
2023-05-20T15:06:36.396Z,8.02
2023-05-20T15:09:07.407Z,14.75
2023-05-20T15:11:35.315Z,10.95
2023-05-20T15:14:03.228Z,11.75
2023-05-20T15:16:31.183Z,7.53
2023-05-20T15:18:59.230Z,7.90
2023-05-20T15:21:27.199Z,9.10
2023-05-20T15:23:55.471Z,9.02
2023-05-20T15:26:25.117Z,8.43
2023-05-20T15:28:53.146Z,7.75
2023-05-20T15:31:21.102Z,7.63
2023-05-20T15:33:49.152Z,9.38
2023-05-20T15:36:17.094Z,8.43
2023-05-20T15:38:45.042Z,8.40
2023-05-20T15:41:16.095Z,10.95
2023-05-20T15:43:45.459Z,6.88
2023-05-20T15:46:13.402Z,11.45
2023-05-20T15:48:41.403Z,9.35
2023-05-20T15:51:09.372Z,8.38
2023-05-20T15:53:39.337Z,9.20
2023-05-20T15:56:09.943Z,10.23
2023-05-20T15:58:37.833Z,7.75
2023-05-20T16:01:07.751Z,8.80
2023-05-20T16:03:35.818Z,10.88
2023-05-20T16:06:03.835Z,10.88
2023-05-20T16:08:31.767Z,12.88
2023-05-20T16:10:59.704Z,7.80
2023-05-20T16:13:27.642Z,10.20
2023-05-20T16:15:57.759Z,8.48
2023-05-20T16:18:28.710Z,9.93
2023-05-20T16:20:56.887Z,10.57
2023-05-20T16:23:25.479Z,11.90
2023-05-20T16:25:53.434Z,7.22
2023-05-20T16:28:22.211Z,9.02
2023-05-20T16:30:50.161Z,8.68
2023-05-20T16:33:18.408Z,9.38
2023-05-20T16:35:47.615Z,8.63
2023-05-20T16:38:15.582Z,9.48
2023-05-20T16:40:43.534Z,9.23
2023-05-20T16:43:11.432Z,8.27
2023-05-20T16:45:58.250Z,9.70
2023-05-20T16:48:26.767Z,9.60
2023-05-20T16:50:56.225Z,8.77
2023-05-20T16:53:24.136Z,10.23
2023-05-20T16:55:52.372Z,13.60
2023-05-20T16:58:20.236Z,12.00
2023-05-20T17:00:48.169Z,8.35
2023-05-20T17:03:17.886Z,9.45
2023-05-20T17:05:46.027Z,10.55
2023-05-20T17:08:15.302Z,11.32
2023-05-20T17:10:43.222Z,9.40
2023-05-20T17:13:11.137Z,10.05
2023-05-20T17:15:39.063Z,9.77
2023-05-20T17:18:07.192Z,9.45
2023-05-20T17:20:35.403Z,8.15
2023-05-20T17:23:03.476Z,9.05
2023-05-20T17:25:32.734Z,10.88
2023-05-20T17:28:01.057Z,9.23
2023-05-20T17:30:29.086Z,8.85
2023-05-20T17:32:57.448Z,13.85
2023-05-20T17:35:26.541Z,9.63
2023-05-20T17:37:54.964Z,12.45
2023-05-20T17:40:23.087Z,10.23
2023-05-20T17:42:52.346Z,11.00
2023-05-20T17:45:20.394Z,10.25
2023-05-20T17:47:48.930Z,12.25
2023-05-20T17:50:17.187Z,12.10
2023-05-20T17:52:45.109Z,10.85
2023-05-20T17:55:13.048Z,15.45
2023-05-20T17:57:41.118Z,9.77
2023-05-20T18:00:13.055Z,10.15
2023-05-20T18:02:47.399Z,9.73
2023-05-20T18:05:16.857Z,10.90
2023-05-20T18:07:44.812Z,10.40
2023-05-20T18:10:12.756Z,12.88
2023-05-20T18:12:40.724Z,8.88
2023-05-20T18:15:11.119Z,11.95
2023-05-20T18:17:40.569Z,11.30
2023-05-20T18:20:10.776Z,13.35
2023-05-20T18:22:40.266Z,11.23
2023-05-20T18:25:09.383Z,15.25
2023-05-20T18:27:37.271Z,10.48
2023-05-20T18:30:05.938Z,13.52
2023-05-20T18:32:35.336Z,9.95
2023-05-20T18:35:03.362Z,11.65
2023-05-20T18:37:31.425Z,10.30
2023-05-20T18:39:59.308Z,10.65
2023-05-20T18:42:27.414Z,10.20
2023-05-20T18:44:55.528Z,10.73
2023-05-20T18:47:23.527Z,17.40
2023-05-20T18:49:52.812Z,10.38
2023-05-20T18:52:20.708Z,12.10
2023-05-20T18:54:48.654Z,10.63
2023-05-20T18:57:16.909Z,10.52
2023-05-20T18:59:44.844Z,10.57
2023-05-20T19:02:13.257Z,13.25
2023-05-20T19:04:42.494Z,12.45
2023-05-20T19:07:12.949Z,10.82
2023-05-20T19:09:40.934Z,12.23
2023-05-20T19:12:09.243Z,13.75
2023-05-20T19:14:37.165Z,10.95
2023-05-20T19:17:05.518Z,11.43
2023-05-20T19:19:33.586Z,11.60
2023-05-20T19:22:01.486Z,12.20
2023-05-20T19:24:31.825Z,13.55
2023-05-20T19:27:00.150Z,14.63
2023-05-20T19:29:28.043Z,15.43
2023-05-20T19:31:56.985Z,13.55
2023-05-20T19:34:25.293Z,12.35
2023-05-20T19:36:53.179Z,10.40
2023-05-20T19:39:21.935Z,11.93
2023-05-20T19:41:52.969Z,15.38
2023-05-20T19:44:20.923Z,14.55
2023-05-20T19:46:49.265Z,13.15
2023-05-20T19:49:17.224Z,12.55
2023-05-20T19:51:45.286Z,12.98
2023-05-20T19:54:13.688Z,15.13
2023-05-20T19:56:41.654Z,12.52
2023-05-20T19:59:10.988Z,15.15
2023-05-20T20:01:39.866Z,10.77
2023-05-20T20:04:08.215Z,12.57
2023-05-20T20:06:36.121Z,13.40
2023-05-20T20:09:04.861Z,12.07
2023-05-20T20:11:32.800Z,13.82
2023-05-20T20:14:00.700Z,12.27
2023-05-20T20:16:30.347Z,14.65
2023-05-20T20:18:58.445Z,13.52
2023-05-20T20:21:26.859Z,16.85
2023-05-20T20:23:54.807Z,14.48
2023-05-20T20:26:25.741Z,14.90
2023-05-20T20:28:53.758Z,14.00
2023-05-20T20:31:21.658Z,13.00
2023-05-20T20:33:51.316Z,12.07
2023-05-20T20:36:19.227Z,11.65
2023-05-20T20:38:47.610Z,13.52
2023-05-20T20:41:16.702Z,14.80
2023-05-20T20:43:45.783Z,12.10
2023-05-20T20:46:14.769Z,11.75
2023-05-20T20:48:45.590Z,12.00
2023-05-20T20:51:15.807Z,14.20
2023-05-20T20:53:46.357Z,12.55
2023-05-20T20:56:14.595Z,14.13
2023-05-20T20:58:42.695Z,15.15
2023-05-20T21:01:10.909Z,12.93
2023-05-20T21:03:40.388Z,14.65
2023-05-20T21:06:08.738Z,11.10
2023-05-20T21:08:37.988Z,13.93
2023-05-20T21:11:06.110Z,14.70
2023-05-20T21:13:33.993Z,14.32
2023-05-20T21:16:01.941Z,13.55
2023-05-20T21:18:29.829Z,12.70
2023-05-20T21:20:57.756Z,14.73
2023-05-20T21:23:25.660Z,11.05
2023-05-20T21:25:54.950Z,13.63
2023-05-20T21:28:22.835Z,12.05
2023-05-20T21:30:50.963Z,12.23
2023-05-20T21:33:18.862Z,12.13
2023-05-20T21:35:48.459Z,13.52
2023-05-20T21:38:16.464Z,12.30
2023-05-20T21:40:44.357Z,16.13
2023-05-20T21:43:13.677Z,13.52
2023-05-20T21:45:41.606Z,13.48
2023-05-20T21:48:09.488Z,11.52
2023-05-20T21:50:37.381Z,12.68
2023-05-20T21:53:05.265Z,10.77
2023-05-20T21:55:33.169Z,13.43
2023-05-20T21:58:01.115Z,12.77
2023-05-20T22:00:30.518Z,11.95
2023-05-20T22:02:58.438Z,15.88
2023-05-20T22:05:26.422Z,12.45
2023-05-20T22:07:54.591Z,14.32
2023-05-20T22:10:23.360Z,14.70
2023-05-20T22:12:51.715Z,14.35
2023-05-20T22:15:20.044Z,11.27
2023-05-20T22:17:50.626Z,14.52
2023-05-20T22:20:18.828Z,15.05
2023-05-20T22:22:46.742Z,12.25
2023-05-20T22:25:14.732Z,12.35
2023-05-20T22:27:43.282Z,16.25
2023-05-20T22:30:18.563Z,11.95
2023-05-20T22:32:48.707Z,16.30
2023-05-20T22:35:16.866Z,14.50
2023-05-20T22:37:44.747Z,12.95
2023-05-20T22:40:13.167Z,12.82
2023-05-20T22:42:41.092Z,11.75
2023-05-20T22:45:10.289Z,13.50
2023-05-20T22:47:38.235Z,11.77
2023-05-20T22:50:09.287Z,11.43
2023-05-20T22:52:37.719Z,11.65
2023-05-20T22:55:06.259Z,10.95
2023-05-20T22:57:34.406Z,11.02
2023-05-20T23:00:03.007Z,12.20
2023-05-20T23:02:31.512Z,14.23
2023-05-20T23:04:59.507Z,9.85
2023-05-20T23:07:29.511Z,14.25
2023-05-20T23:09:57.404Z,14.15
2023-05-20T23:12:25.356Z,10.18
2023-05-20T23:14:53.243Z,11.57
2023-05-20T23:17:21.174Z,9.55
2023-05-20T23:19:49.150Z,13.45
2023-05-20T23:22:17.347Z,11.05
2023-05-20T23:24:46.838Z,11.15
2023-05-20T23:27:14.764Z,10.43
2023-05-20T23:29:43.127Z,12.48
2023-05-20T23:32:11.031Z,11.85
2023-05-20T23:34:38.921Z,12.20
2023-05-20T23:37:06.797Z,12.35
2023-05-20T23:39:34.717Z,15.80
2023-05-20T23:42:04.228Z,10.93
2023-05-20T23:44:32.142Z,13.15
2023-05-20T23:47:00.857Z,11.27
2023-05-20T23:49:29.723Z,11.13
2023-05-20T23:51:57.634Z,10.95
2023-05-20T23:54:25.501Z,10.40
2023-05-20T23:56:53.421Z,10.15
2023-05-20T23:59:22.651Z,10.30
